sensor_id;sensor_type;location;lat;lon;timestamp;pressure;altitude;pressure_sealevel;temperature;humidity
10668;BME280;5382;42.136;24.796;2023-01-27T00:00:32;99248.28;;;1.70;100.00
10668;BME280;5382;42.136;24.796;2023-01-27T00:02:59;99225.03;;;1.46;100.00
10668;BME280;5382;42.136;24.796;2023-01-27T00:05:26;99221.59;;;1.46;100.00
10668;BME280;5382;42.136;24.796;2023-01-27T00:07:52;99275.16;;;1.72;100.00
10668;BME280;5382;42.136;24.796;2023-01-27T00:10:23;99276.00;;;1.72;100.00
10668;BME280;5382;42.136;24.796;2023-01-27T00:12:52;99269.44;;;1.83;100.00
10668;BME280;5382;42.136;24.796;2023-01-27T00:15:36;99234.00;;;1.60;100.00
10668;BME280;5382;42.136;24.796;2023-01-27T00:18:03;99285.25;;;1.80;100.00
10668;BME280;5382;42.136;24.796;2023-01-27T00:20:30;99244.84;;;1.69;100.00
10668;BME280;5382;42.136;24.796;2023-01-27T00:23:16;99261.81;;;1.78;100.00
10668;BME280;5382;42.136;24.796;2023-01-27T00:26:02;99189.75;;;1.39;100.00
10668;BME280;5382;42.136;24.796;2023-01-27T00:28:32;99211.31;;;1.62;100.00
10668;BME280;5382;42.136;24.796;2023-01-27T00:30:59;99225.75;;;1.69;100.00
10668;BME280;5382;42.136;24.796;2023-01-27T00:33:26;99186.56;;;1.51;100.00
10668;BME280;5382;42.136;24.796;2023-01-27T00:35:57;99190.19;;;1.68;100.00
10668;BME280;5382;42.136;24.796;2023-01-27T00:38:25;99202.97;;;1.72;100.00
10668;BME280;5382;42.136;24.796;2023-01-27T00:40:51;99231.66;;;1.91;100.00
10668;BME280;5382;42.136;24.796;2023-01-27T00:43:37;99137.69;;;1.19;100.00
10668;BME280;5382;42.136;24.796;2023-01-27T00:46:04;99236.66;;;1.77;100.00
10668;BME280;5382;42.136;24.796;2023-01-27T00:48:30;99239.97;;;1.81;100.00
10668;BME280;5382;42.136;24.796;2023-01-27T00:50:57;99170.03;;;1.34;100.00
10668;BME280;5382;42.136;24.796;2023-01-27T00:53:24;99215.25;;;1.70;100.00
10668;BME280;5382;42.136;24.796;2023-01-27T00:55:51;99181.66;;;1.45;100.00
10668;BME280;5382;42.136;24.796;2023-01-27T00:58:18;99191.22;;;1.64;100.00
10668;BME280;5382;42.136;24.796;2023-01-27T01:00:48;99209.19;;;1.89;100.00
10668;BME280;5382;42.136;24.796;2023-01-27T01:03:14;99201.00;;;1.78;100.00
10668;BME280;5382;42.136;24.796;2023-01-27T01:05:41;99115.03;;;1.57;100.00
10668;BME280;5382;42.136;24.796;2023-01-27T01:08:08;99173.81;;;2.01;100.00
10668;BME280;5382;42.136;24.796;2023-01-27T01:10:36;99089.84;;;1.58;100.00
10668;BME280;5382;42.136;24.796;2023-01-27T01:13:03;99147.34;;;2.08;100.00
10668;BME280;5382;42.136;24.796;2023-01-27T01:15:34;99168.81;;;1.96;100.00
10668;BME280;5382;42.136;24.796;2023-01-27T01:18:02;99179.25;;;1.96;100.00
10668;BME280;5382;42.136;24.796;2023-01-27T01:20:29;99177.78;;;1.90;100.00
10668;BME280;5382;42.136;24.796;2023-01-27T01:22:56;99182.06;;;1.74;100.00
10668;BME280;5382;42.136;24.796;2023-01-27T01:25:23;99233.13;;;1.97;100.00
10668;BME280;5382;42.136;24.796;2023-01-27T01:27:50;99188.91;;;1.58;100.00
10668;BME280;5382;42.136;24.796;2023-01-27T01:30:17;99227.00;;;1.98;100.00
10668;BME280;5382;42.136;24.796;2023-01-27T01:32:43;99175.09;;;1.56;100.00
10668;BME280;5382;42.136;24.796;2023-01-27T01:35:13;99203.59;;;1.78;100.00
10668;BME280;5382;42.136;24.796;2023-01-27T01:37:39;99215.25;;;1.89;100.00
10668;BME280;5382;42.136;24.796;2023-01-27T01:40:08;99186.06;;;1.81;100.00
10668;BME280;5382;42.136;24.796;2023-01-27T01:42:51;99173.78;;;1.83;100.00
10668;BME280;5382;42.136;24.796;2023-01-27T01:45:47;99194.69;;;2.01;100.00
10668;BME280;5382;42.136;24.796;2023-01-27T01:48:18;99065.81;;;1.15;100.00
10668;BME280;5382;42.136;24.796;2023-01-27T01:50:51;99146.56;;;1.89;100.00
10668;BME280;5382;42.136;24.796;2023-01-27T01:53:20;99101.03;;;1.60;100.00
10668;BME280;5382;42.136;24.796;2023-01-27T01:55:54;99116.38;;;1.83;100.00
10668;BME280;5382;42.136;24.796;2023-01-27T01:58:22;99154.34;;;1.71;100.00
10668;BME280;5382;42.136;24.796;2023-01-27T02:00:52;99112.84;;;1.67;100.00
10668;BME280;5382;42.136;24.796;2023-01-27T02:03:19;99164.22;;;2.01;100.00
10668;BME280;5382;42.136;24.796;2023-01-27T02:05:48;99176.16;;;1.88;100.00
10668;BME280;5382;42.136;24.796;2023-01-27T02:08:18;99165.94;;;2.02;100.00
10668;BME280;5382;42.136;24.796;2023-01-27T02:10:46;99167.53;;;2.05;100.00
10668;BME280;5382;42.136;24.796;2023-01-27T02:13:14;99081.09;;;1.59;100.00
10668;BME280;5382;42.136;24.796;2023-01-27T02:15:41;98981.88;;;1.08;100.00
10668;BME280;5382;42.136;24.796;2023-01-27T02:18:07;99052.97;;;1.29;100.00
10668;BME280;5382;42.136;24.796;2023-01-27T02:20:40;99128.47;;;2.03;100.00
10668;BME280;5382;42.136;24.796;2023-01-27T02:23:19;99106.44;;;2.09;100.00
10668;BME280;5382;42.136;24.796;2023-01-27T02:25:56;99105.84;;;2.21;100.00
10668;BME280;5382;42.136;24.796;2023-01-27T02:28:27;99107.53;;;2.22;100.00
10668;BME280;5382;42.136;24.796;2023-01-27T02:30:54;99111.06;;;2.21;100.00
10668;BME280;5382;42.136;24.796;2023-01-27T02:33:21;99092.88;;;2.20;100.00
10668;BME280;5382;42.136;24.796;2023-01-27T02:35:55;99104.00;;;2.23;100.00
10668;BME280;5382;42.136;24.796;2023-01-27T02:38:26;99117.50;;;2.31;100.00
10668;BME280;5382;42.136;24.796;2023-01-27T02:41:00;99123.94;;;2.24;100.00
10668;BME280;5382;42.136;24.796;2023-01-27T02:43:29;99087.94;;;2.13;100.00
10668;BME280;5382;42.136;24.796;2023-01-27T02:45:56;99040.25;;;1.77;100.00
10668;BME280;5382;42.136;24.796;2023-01-27T02:48:23;99125.03;;;2.20;100.00
10668;BME280;5382;42.136;24.796;2023-01-27T02:50:50;99131.66;;;2.27;100.00
10668;BME280;5382;42.136;24.796;2023-01-27T02:53:16;99108.44;;;2.21;100.00
10668;BME280;5382;42.136;24.796;2023-01-27T02:55:43;99115.50;;;2.36;100.00
10668;BME280;5382;42.136;24.796;2023-01-27T02:58:11;98972.81;;;1.51;100.00
10668;BME280;5382;42.136;24.796;2023-01-27T03:00:40;99109.50;;;2.34;100.00
10668;BME280;5382;42.136;24.796;2023-01-27T03:03:08;99068.25;;;2.08;100.00
10668;BME280;5382;42.136;24.796;2023-01-27T03:05:34;99097.59;;;2.46;100.00
10668;BME280;5382;42.136;24.796;2023-01-27T03:08:01;99095.75;;;2.48;100.00
10668;BME280;5382;42.136;24.796;2023-01-27T03:10:28;99089.06;;;2.43;100.00
10668;BME280;5382;42.136;24.796;2023-01-27T03:12:55;99079.84;;;2.53;100.00
10668;BME280;5382;42.136;24.796;2023-01-27T03:15:23;99035.47;;;2.20;100.00
10668;BME280;5382;42.136;24.796;2023-01-27T03:18:09;99080.59;;;2.55;100.00
10668;BME280;5382;42.136;24.796;2023-01-27T03:20:38;99028.16;;;2.09;100.00
10668;BME280;5382;42.136;24.796;2023-01-27T03:23:05;99092.59;;;2.59;100.00
10668;BME280;5382;42.136;24.796;2023-01-27T03:25:32;99070.53;;;2.31;100.00
10668;BME280;5382;42.136;24.796;2023-01-27T03:27:59;99069.47;;;2.18;100.00
10668;BME280;5382;42.136;24.796;2023-01-27T03:30:27;99126.22;;;2.65;100.00
10668;BME280;5382;42.136;24.796;2023-01-27T03:32:55;99084.19;;;2.36;100.00
10668;BME280;5382;42.136;24.796;2023-01-27T03:35:21;99099.13;;;2.50;100.00
10668;BME280;5382;42.136;24.796;2023-01-27T03:37:48;99073.44;;;2.25;100.00
10668;BME280;5382;42.136;24.796;2023-01-27T03:40:33;99111.53;;;2.62;100.00
10668;BME280;5382;42.136;24.796;2023-01-27T03:43:18;99063.13;;;2.39;100.00
10668;BME280;5382;42.136;24.796;2023-01-27T03:46:04;99094.44;;;2.57;100.00
10668;BME280;5382;42.136;24.796;2023-01-27T03:48:51;99100.88;;;2.67;100.00
10668;BME280;5382;42.136;24.796;2023-01-27T03:51:20;99107.44;;;2.58;100.00
10668;BME280;5382;42.136;24.796;2023-01-27T03:53:47;99102.84;;;2.46;100.00
10668;BME280;5382;42.136;24.796;2023-01-27T03:56:15;99042.03;;;2.27;100.00
10668;BME280;5382;42.136;24.796;2023-01-27T03:58:43;99141.44;;;2.74;100.00
10668;BME280;5382;42.136;24.796;2023-01-27T04:01:16;99104.44;;;2.82;100.00
10668;BME280;5382;42.136;24.796;2023-01-27T04:03:43;99075.88;;;2.79;100.00
10668;BME280;5382;42.136;24.796;2023-01-27T04:06:29;99083.31;;;2.87;100.00
10668;BME280;5382;42.136;24.796;2023-01-27T04:09:18;99026.66;;;2.71;100.00
10668;BME280;5382;42.136;24.796;2023-01-27T04:11:45;99046.78;;;2.69;100.00
10668;BME280;5382;42.136;24.796;2023-01-27T04:14:25;99092.91;;;3.02;100.00
10668;BME280;5382;42.136;24.796;2023-01-27T04:16:56;99034.22;;;2.60;100.00
10668;BME280;5382;42.136;24.796;2023-01-27T04:19:23;99075.81;;;2.96;100.00
10668;BME280;5382;42.136;24.796;2023-01-27T04:21:51;98974.97;;;2.45;100.00
10668;BME280;5382;42.136;24.796;2023-01-27T04:24:18;99072.47;;;3.10;100.00
10668;BME280;5382;42.136;24.796;2023-01-27T04:26:50;98952.28;;;2.29;100.00
10668;BME280;5382;42.136;24.796;2023-01-27T04:29:19;99089.47;;;3.17;100.00
10668;BME280;5382;42.136;24.796;2023-01-27T04:31:46;99014.38;;;2.89;100.00
10668;BME280;5382;42.136;24.796;2023-01-27T04:34:15;99028.53;;;3.01;100.00
10668;BME280;5382;42.136;24.796;2023-01-27T04:36:42;98995.75;;;2.79;100.00
10668;BME280;5382;42.136;24.796;2023-01-27T04:39:09;99052.28;;;3.12;100.00
10668;BME280;5382;42.136;24.796;2023-01-27T04:41:36;99024.91;;;2.88;100.00
10668;BME280;5382;42.136;24.796;2023-01-27T04:44:04;99061.13;;;2.94;100.00
10668;BME280;5382;42.136;24.796;2023-01-27T04:46:31;99021.88;;;2.95;100.00
10668;BME280;5382;42.136;24.796;2023-01-27T04:48:58;99043.44;;;2.99;100.00
10668;BME280;5382;42.136;24.796;2023-01-27T04:51:27;99057.09;;;3.04;100.00
10668;BME280;5382;42.136;24.796;2023-01-27T04:53:54;99047.16;;;2.95;100.00
10668;BME280;5382;42.136;24.796;2023-01-27T04:56:24;99012.84;;;2.69;100.00
10668;BME280;5382;42.136;24.796;2023-01-27T04:58:51;99058.38;;;3.13;100.00
10668;BME280;5382;42.136;24.796;2023-01-27T05:01:18;99053.81;;;3.00;100.00
10668;BME280;5382;42.136;24.796;2023-01-27T05:03:45;98995.19;;;2.41;100.00
10668;BME280;5382;42.136;24.796;2023-01-27T05:06:12;99028.75;;;2.80;100.00
10668;BME280;5382;42.136;24.796;2023-01-27T05:08:40;99042.19;;;2.90;100.00
10668;BME280;5382;42.136;24.796;2023-01-27T05:11:07;99064.16;;;2.86;100.00
10668;BME280;5382;42.136;24.796;2023-01-27T05:13:34;99069.72;;;2.80;100.00
10668;BME280;5382;42.136;24.796;2023-01-27T05:16:09;99013.75;;;2.35;100.00
10668;BME280;5382;42.136;24.796;2023-01-27T05:18:36;99072.81;;;2.71;100.00
10668;BME280;5382;42.136;24.796;2023-01-27T05:21:05;99106.72;;;2.88;100.00
10668;BME280;5382;42.136;24.796;2023-01-27T05:23:32;99045.00;;;2.54;100.00
10668;BME280;5382;42.136;24.796;2023-01-27T05:26:06;99107.13;;;2.80;100.00
10668;BME280;5382;42.136;24.796;2023-01-27T05:28:34;99102.84;;;2.79;100.00
10668;BME280;5382;42.136;24.796;2023-01-27T05:31:03;99092.63;;;2.75;100.00
10668;BME280;5382;42.136;24.796;2023-01-27T05:33:31;99098.28;;;2.83;100.00
10668;BME280;5382;42.136;24.796;2023-01-27T05:35:59;99075.19;;;2.75;100.00
10668;BME280;5382;42.136;24.796;2023-01-27T05:38:27;99036.03;;;2.42;100.00
10668;BME280;5382;42.136;24.796;2023-01-27T05:40:55;98986.78;;;2.18;100.00
10668;BME280;5382;42.136;24.796;2023-01-27T05:43:24;99096.94;;;2.92;100.00
10668;BME280;5382;42.136;24.796;2023-01-27T05:45:51;99052.31;;;2.63;100.00
10668;BME280;5382;42.136;24.796;2023-01-27T05:48:18;99089.81;;;2.62;100.00
10668;BME280;5382;42.136;24.796;2023-01-27T05:50:53;99105.97;;;2.86;100.00
10668;BME280;5382;42.136;24.796;2023-01-27T05:53:20;99101.13;;;2.78;100.00
10668;BME280;5382;42.136;24.796;2023-01-27T05:55:48;99048.22;;;2.42;100.00
10668;BME280;5382;42.136;24.796;2023-01-27T05:58:15;99064.72;;;2.59;100.00
10668;BME280;5382;42.136;24.796;2023-01-27T06:00:44;99087.38;;;2.92;100.00
10668;BME280;5382;42.136;24.796;2023-01-27T06:03:11;99091.47;;;2.80;100.00
10668;BME280;5382;42.136;24.796;2023-01-27T06:05:38;99094.34;;;2.92;100.00
10668;BME280;5382;42.136;24.796;2023-01-27T06:08:05;99065.94;;;2.86;100.00
10668;BME280;5382;42.136;24.796;2023-01-27T06:10:31;99084.22;;;2.86;100.00
10668;BME280;5382;42.136;24.796;2023-01-27T06:13:02;99077.31;;;2.84;100.00
10668;BME280;5382;42.136;24.796;2023-01-27T06:15:29;99004.94;;;2.37;100.00
10668;BME280;5382;42.136;24.796;2023-01-27T06:17:57;99077.16;;;2.88;100.00
10668;BME280;5382;42.136;24.796;2023-01-27T06:20:24;99086.84;;;3.01;100.00
10668;BME280;5382;42.136;24.796;2023-01-27T06:22:51;99100.84;;;3.00;100.00
10668;BME280;5382;42.136;24.796;2023-01-27T06:25:18;99097.22;;;3.03;100.00
10668;BME280;5382;42.136;24.796;2023-01-27T06:27:45;99088.03;;;3.12;100.00
10668;BME280;5382;42.136;24.796;2023-01-27T06:30:13;99067.63;;;2.87;100.00
10668;BME280;5382;42.136;24.796;2023-01-27T06:32:39;99050.06;;;2.73;100.00
10668;BME280;5382;42.136;24.796;2023-01-27T06:35:08;99030.69;;;2.61;100.00
10668;BME280;5382;42.136;24.796;2023-01-27T06:37:35;99096.75;;;3.28;100.00
10668;BME280;5382;42.136;24.796;2023-01-27T06:40:02;99103.41;;;3.34;100.00
10668;BME280;5382;42.136;24.796;2023-01-27T06:42:29;99004.59;;;2.77;100.00
10668;BME280;5382;42.136;24.796;2023-01-27T06:44:56;99076.91;;;3.08;100.00
10668;BME280;5382;42.136;24.796;2023-01-27T06:47:23;99062.06;;;3.24;100.00
10668;BME280;5382;42.136;24.796;2023-01-27T06:49:50;99097.41;;;3.47;100.00
10668;BME280;5382;42.136;24.796;2023-01-27T06:52:18;99095.31;;;3.54;100.00
10668;BME280;5382;42.136;24.796;2023-01-27T06:54:45;99096.31;;;3.52;100.00
10668;BME280;5382;42.136;24.796;2023-01-27T06:57:12;99073.03;;;3.47;100.00
10668;BME280;5382;42.136;24.796;2023-01-27T06:59:40;99099.00;;;3.66;100.00
10668;BME280;5382;42.136;24.796;2023-01-27T07:02:08;99094.84;;;3.78;100.00
10668;BME280;5382;42.136;24.796;2023-01-27T07:04:35;99100.16;;;3.76;100.00
10668;BME280;5382;42.136;24.796;2023-01-27T07:07:02;99095.81;;;3.91;100.00
10668;BME280;5382;42.136;24.796;2023-01-27T07:09:30;99057.50;;;3.60;100.00
10668;BME280;5382;42.136;24.796;2023-01-27T07:11:57;99053.63;;;3.35;100.00
10668;BME280;5382;42.136;24.796;2023-01-27T07:14:24;99103.84;;;3.88;100.00
10668;BME280;5382;42.136;24.796;2023-01-27T07:16:51;99100.47;;;3.86;100.00
10668;BME280;5382;42.136;24.796;2023-01-27T07:19:17;99088.34;;;3.85;100.00
10668;BME280;5382;42.136;24.796;2023-01-27T07:21:44;99102.41;;;3.98;100.00
10668;BME280;5382;42.136;24.796;2023-01-27T07:24:12;99110.91;;;4.02;100.00
10668;BME280;5382;42.136;24.796;2023-01-27T07:26:40;99105.66;;;4.02;100.00
10668;BME280;5382;42.136;24.796;2023-01-27T07:29:09;99109.13;;;4.02;100.00
10668;BME280;5382;42.136;24.796;2023-01-27T07:31:36;99113.44;;;4.03;100.00
10668;BME280;5382;42.136;24.796;2023-01-27T07:34:03;99044.31;;;3.61;100.00
10668;BME280;5382;42.136;24.796;2023-01-27T07:36:30;98994.19;;;3.39;100.00
10668;BME280;5382;42.136;24.796;2023-01-27T07:38:56;99065.88;;;3.81;100.00
10668;BME280;5382;42.136;24.796;2023-01-27T07:41:23;99062.50;;;3.79;100.00
10668;BME280;5382;42.136;24.796;2023-01-27T07:43:52;99107.66;;;4.12;100.00
10668;BME280;5382;42.136;24.796;2023-01-27T07:46:19;99074.13;;;3.89;100.00
10668;BME280;5382;42.136;24.796;2023-01-27T07:48:45;99094.75;;;4.09;100.00
10668;BME280;5382;42.136;24.796;2023-01-27T07:51:13;99051.34;;;3.91;100.00
10668;BME280;5382;42.136;24.796;2023-01-27T07:53:41;99069.13;;;4.00;100.00
10668;BME280;5382;42.136;24.796;2023-01-27T07:56:08;99090.31;;;4.26;100.00
10668;BME280;5382;42.136;24.796;2023-01-27T07:58:36;99092.75;;;4.29;100.00
10668;BME280;5382;42.136;24.796;2023-01-27T08:01:06;99064.69;;;4.17;100.00
10668;BME280;5382;42.136;24.796;2023-01-27T08:03:33;99086.69;;;4.43;100.00
10668;BME280;5382;42.136;24.796;2023-01-27T08:06:03;99084.66;;;4.48;100.00
10668;BME280;5382;42.136;24.796;2023-01-27T08:08:31;99084.81;;;4.59;100.00
10668;BME280;5382;42.136;24.796;2023-01-27T08:10:58;99065.09;;;4.39;100.00
10668;BME280;5382;42.136;24.796;2023-01-27T08:13:25;99078.38;;;4.50;100.00
10668;BME280;5382;42.136;24.796;2023-01-27T08:15:55;99070.91;;;4.44;100.00
10668;BME280;5382;42.136;24.796;2023-01-27T08:18:23;99095.50;;;4.56;100.00
10668;BME280;5382;42.136;24.796;2023-01-27T08:20:50;99076.72;;;4.49;100.00
10668;BME280;5382;42.136;24.796;2023-01-27T08:23:19;99072.56;;;4.45;100.00
10668;BME280;5382;42.136;24.796;2023-01-27T08:25:49;99076.13;;;4.44;100.00
10668;BME280;5382;42.136;24.796;2023-01-27T08:28:16;99064.16;;;4.40;100.00
10668;BME280;5382;42.136;24.796;2023-01-27T08:30:43;99061.34;;;4.43;100.00
10668;BME280;5382;42.136;24.796;2023-01-27T08:33:10;99045.09;;;4.52;100.00
10668;BME280;5382;42.136;24.796;2023-01-27T08:35:38;99044.31;;;4.50;100.00
10668;BME280;5382;42.136;24.796;2023-01-27T08:38:09;99046.00;;;4.51;100.00
10668;BME280;5382;42.136;24.796;2023-01-27T08:40:37;99043.03;;;4.57;100.00
10668;BME280;5382;42.136;24.796;2023-01-27T08:43:04;98984.94;;;4.36;100.00
10668;BME280;5382;42.136;24.796;2023-01-27T08:45:31;99037.75;;;4.72;100.00
10668;BME280;5382;42.136;24.796;2023-01-27T08:47:58;99031.97;;;4.52;100.00
10668;BME280;5382;42.136;24.796;2023-01-27T08:50:26;99046.56;;;4.71;100.00
10668;BME280;5382;42.136;24.796;2023-01-27T08:52:56;98943.78;;;3.96;100.00
10668;BME280;5382;42.136;24.796;2023-01-27T08:55:24;99059.50;;;4.88;100.00
10668;BME280;5382;42.136;24.796;2023-01-27T08:57:51;99063.41;;;4.81;100.00
10668;BME280;5382;42.136;24.796;2023-01-27T09:00:18;99061.56;;;4.83;100.00
10668;BME280;5382;42.136;24.796;2023-01-27T09:02:45;99070.53;;;4.79;100.00
10668;BME280;5382;42.136;24.796;2023-01-27T09:05:13;99064.72;;;4.74;100.00
10668;BME280;5382;42.136;24.796;2023-01-27T09:07:42;99068.44;;;4.70;100.00
10668;BME280;5382;42.136;24.796;2023-01-27T09:10:10;99006.53;;;4.40;100.00
10668;BME280;5382;42.136;24.796;2023-01-27T09:12:38;99025.03;;;4.51;100.00
10668;BME280;5382;42.136;24.796;2023-01-27T09:15:05;99065.66;;;4.73;100.00
10668;BME280;5382;42.136;24.796;2023-01-27T09:17:32;99055.34;;;4.70;100.00
10668;BME280;5382;42.136;24.796;2023-01-27T09:19:59;99055.84;;;4.76;100.00
10668;BME280;5382;42.136;24.796;2023-01-27T09:22:26;99052.47;;;4.74;100.00
10668;BME280;5382;42.136;24.796;2023-01-27T09:24:53;99033.28;;;4.74;100.00
10668;BME280;5382;42.136;24.796;2023-01-27T09:27:21;99052.66;;;4.71;100.00
10668;BME280;5382;42.136;24.796;2023-01-27T09:29:48;99001.75;;;4.61;100.00
10668;BME280;5382;42.136;24.796;2023-01-27T09:32:14;99029.78;;;4.88;100.00
10668;BME280;5382;42.136;24.796;2023-01-27T09:34:41;99015.84;;;4.87;100.00
10668;BME280;5382;42.136;24.796;2023-01-27T09:37:09;99010.88;;;4.97;100.00
10668;BME280;5382;42.136;24.796;2023-01-27T09:39:40;99017.78;;;4.98;100.00
10668;BME280;5382;42.136;24.796;2023-01-27T09:42:30;98976.66;;;4.86;100.00
10668;BME280;5382;42.136;24.796;2023-01-27T09:45:19;98992.81;;;4.92;100.00
10668;BME280;5382;42.136;24.796;2023-01-27T09:48:05;98887.84;;;4.40;100.00
10668;BME280;5382;42.136;24.796;2023-01-27T09:50:45;98997.91;;;5.08;100.00
10668;BME280;5382;42.136;24.796;2023-01-27T09:56:27;98956.88;;;4.80;100.00
10668;BME280;5382;42.136;24.796;2023-01-27T09:59:11;99010.09;;;5.09;100.00
10668;BME280;5382;42.136;24.796;2023-01-27T10:01:47;99007.13;;;5.01;100.00
10668;BME280;5382;42.136;24.796;2023-01-27T10:04:31;98983.09;;;4.80;100.00
10668;BME280;5382;42.136;24.796;2023-01-27T10:07:13;99012.66;;;4.96;100.00
10668;BME280;5382;42.136;24.796;2023-01-27T10:10:00;98999.81;;;5.06;100.00
10668;BME280;5382;42.136;24.796;2023-01-27T10:12:45;98973.50;;;5.08;100.00
10668;BME280;5382;42.136;24.796;2023-01-27T10:15:29;98990.38;;;5.03;100.00
10668;BME280;5382;42.136;24.796;2023-01-27T10:18:09;98984.38;;;5.01;100.00
10668;BME280;5382;42.136;24.796;2023-01-27T10:20:47;98993.34;;;5.12;100.00
10668;BME280;5382;42.136;24.796;2023-01-27T10:23:32;98993.91;;;5.02;100.00
10668;BME280;5382;42.136;24.796;2023-01-27T10:26:06;98982.03;;;4.97;100.00
10668;BME280;5382;42.136;24.796;2023-01-27T10:28:42;98963.69;;;4.97;100.00
10668;BME280;5382;42.136;24.796;2023-01-27T10:31:19;98967.69;;;5.02;100.00
10668;BME280;5382;42.136;24.796;2023-01-27T10:33:51;98957.63;;;4.96;100.00
10668;BME280;5382;42.136;24.796;2023-01-27T10:36:25;98954.72;;;5.01;100.00
10668;BME280;5382;42.136;24.796;2023-01-27T10:39:02;98959.34;;;5.10;100.00
10668;BME280;5382;42.136;24.796;2023-01-27T10:41:43;98932.44;;;4.94;100.00
10668;BME280;5382;42.136;24.796;2023-01-27T10:44:35;98945.59;;;5.07;100.00
10668;BME280;5382;42.136;24.796;2023-01-27T10:47:11;98938.63;;;5.20;100.00
10668;BME280;5382;42.136;24.796;2023-01-27T10:49:46;98926.47;;;5.19;100.00
10668;BME280;5382;42.136;24.796;2023-01-27T10:52:19;98927.91;;;5.23;100.00
10668;BME280;5382;42.136;24.796;2023-01-27T10:54:50;98933.28;;;5.34;100.00
10668;BME280;5382;42.136;24.796;2023-01-27T10:57:23;98917.75;;;5.31;100.00
10668;BME280;5382;42.136;24.796;2023-01-27T10:59:58;98932.91;;;5.40;100.00
10668;BME280;5382;42.136;24.796;2023-01-27T11:02:32;98929.97;;;5.45;100.00
10668;BME280;5382;42.136;24.796;2023-01-27T11:05:03;98920.13;;;5.49;100.00
10668;BME280;5382;42.136;24.796;2023-01-27T11:07:42;98913.22;;;5.60;100.00
10668;BME280;5382;42.136;24.796;2023-01-27T11:10:15;98921.09;;;5.73;100.00
10668;BME280;5382;42.136;24.796;2023-01-27T11:12:46;98916.25;;;5.93;100.00
10668;BME280;5382;42.136;24.796;2023-01-27T11:15:19;98912.19;;;6.14;100.00
10668;BME280;5382;42.136;24.796;2023-01-27T11:17:57;98893.69;;;6.16;100.00
10668;BME280;5382;42.136;24.796;2023-01-27T11:20:29;98895.31;;;6.42;100.00
10668;BME280;5382;42.136;24.796;2023-01-27T11:23:03;98875.81;;;6.33;100.00
10668;BME280;5382;42.136;24.796;2023-01-27T11:25:52;98909.69;;;6.62;100.00
10668;BME280;5382;42.136;24.796;2023-01-27T11:28:27;98892.88;;;6.52;100.00
10668;BME280;5382;42.136;24.796;2023-01-27T11:31:03;98920.00;;;6.52;100.00
10668;BME280;5382;42.136;24.796;2023-01-27T11:33:46;98899.91;;;6.27;100.00
10668;BME280;5382;42.136;24.796;2023-01-27T11:36:16;98879.59;;;6.17;100.00
10668;BME280;5382;42.136;24.796;2023-01-27T11:38:43;98910.41;;;6.27;100.00
10668;BME280;5382;42.136;24.796;2023-01-27T11:41:10;98886.25;;;6.09;100.00
10668;BME280;5382;42.136;24.796;2023-01-27T11:43:37;98909.16;;;6.20;100.00
10668;BME280;5382;42.136;24.796;2023-01-27T11:46:08;98904.22;;;6.16;100.00
10668;BME280;5382;42.136;24.796;2023-01-27T11:48:41;98914.41;;;6.07;100.00
10668;BME280;5382;42.136;24.796;2023-01-27T11:51:13;98889.28;;;5.90;100.00
10668;BME280;5382;42.136;24.796;2023-01-27T11:53:43;98891.31;;;6.00;100.00
10668;BME280;5382;42.136;24.796;2023-01-27T11:56:16;98890.47;;;5.99;100.00
10668;BME280;5382;42.136;24.796;2023-01-27T11:58:48;98879.94;;;5.86;100.00
10668;BME280;5382;42.136;24.796;2023-01-27T12:01:20;98872.47;;;5.80;100.00
10668;BME280;5382;42.136;24.796;2023-01-27T12:03:54;98867.56;;;5.76;100.00
10668;BME280;5382;42.136;24.796;2023-01-27T12:06:30;98905.47;;;5.97;100.00
10668;BME280;5382;42.136;24.796;2023-01-27T12:08:58;98889.00;;;5.95;100.00
10668;BME280;5382;42.136;24.796;2023-01-27T12:11:27;98885.81;;;5.90;100.00
10668;BME280;5382;42.136;24.796;2023-01-27T12:13:56;98885.59;;;5.93;100.00
10668;BME280;5382;42.136;24.796;2023-01-27T12:16:26;98884.34;;;5.99;100.00
10668;BME280;5382;42.136;24.796;2023-01-27T12:19:03;98882.47;;;6.01;100.00
10668;BME280;5382;42.136;24.796;2023-01-27T12:21:39;98882.38;;;6.02;100.00
10668;BME280;5382;42.136;24.796;2023-01-27T12:24:19;98860.41;;;5.90;100.00
10668;BME280;5382;42.136;24.796;2023-01-27T12:26:50;98875.34;;;6.03;100.00
10668;BME280;5382;42.136;24.796;2023-01-27T12:29:19;98865.56;;;5.92;100.00
10668;BME280;5382;42.136;24.796;2023-01-27T12:31:49;98864.38;;;6.09;100.00
10668;BME280;5382;42.136;24.796;2023-01-27T12:34:26;98864.91;;;6.14;100.00
10668;BME280;5382;42.136;24.796;2023-01-27T12:36:54;98806.47;;;5.99;100.00
10668;BME280;5382;42.136;24.796;2023-01-27T12:39:39;98861.44;;;6.50;100.00
10668;BME280;5382;42.136;24.796;2023-01-27T12:42:38;98831.22;;;6.45;100.00
10668;BME280;5382;42.136;24.796;2023-01-27T12:45:26;98869.06;;;6.79;100.00
10668;BME280;5382;42.136;24.796;2023-01-27T12:48:00;98856.66;;;6.68;100.00
10668;BME280;5382;42.136;24.796;2023-01-27T12:50:29;98827.78;;;6.55;100.00
10668;BME280;5382;42.136;24.796;2023-01-27T12:53:04;98868.00;;;6.82;100.00
10668;BME280;5382;42.136;24.796;2023-01-27T12:55:34;98874.88;;;6.71;100.00
10668;BME280;5382;42.136;24.796;2023-01-27T12:58:02;98870.06;;;6.52;100.00
10668;BME280;5382;42.136;24.796;2023-01-27T13:00:29;98816.31;;;5.96;100.00
10668;BME280;5382;42.136;24.796;2023-01-27T13:03:04;98875.28;;;6.28;100.00
10668;BME280;5382;42.136;24.796;2023-01-27T13:05:37;98875.75;;;6.22;100.00
10668;BME280;5382;42.136;24.796;2023-01-27T13:08:12;98857.69;;;6.05;100.00
10668;BME280;5382;42.136;24.796;2023-01-27T13:10:48;98867.75;;;6.11;100.00
10668;BME280;5382;42.136;24.796;2023-01-27T13:13:19;98850.22;;;6.11;100.00
10668;BME280;5382;42.136;24.796;2023-01-27T13:15:51;98865.13;;;6.11;100.00
10668;BME280;5382;42.136;24.796;2023-01-27T13:18:20;98851.47;;;6.06;100.00
10668;BME280;5382;42.136;24.796;2023-01-27T13:20:50;98863.75;;;6.18;100.00